sensor_id;sensor_type;location;lat;lon;timestamp;pressure;altitude;pressure_sealevel;temperature;humidity
6387;BME280;3226;42.162;24.756;2023-07-16T00:02:07;99790.94;;;25.17;64.83
6387;BME280;3226;42.162;24.756;2023-07-16T00:04:35;99812.41;;;25.35;64.94
6387;BME280;3226;42.162;24.756;2023-07-16T00:07:05;99805.47;;;25.27;64.76
6387;BME280;3226;42.162;24.756;2023-07-16T00:09:33;99811.38;;;25.36;64.92
6387;BME280;3226;42.162;24.756;2023-07-16T00:12:02;99814.81;;;25.44;64.38
6387;BME280;3226;42.162;24.756;2023-07-16T00:14:30;99811.13;;;25.38;64.87
6387;BME280;3226;42.162;24.756;2023-07-16T00:16:58;99816.13;;;25.34;64.87
6387;BME280;3226;42.162;24.756;2023-07-16T00:19:26;99810.13;;;25.14;65.97
6387;BME280;3226;42.162;24.756;2023-07-16T00:21:54;99811.31;;;25.18;65.54
6387;BME280;3226;42.162;24.756;2023-07-16T00:24:23;99824.72;;;25.18;65.51
6387;BME280;3226;42.162;24.756;2023-07-16T00:26:52;99830.31;;;25.16;65.20
6387;BME280;3226;42.162;24.756;2023-07-16T00:29:20;99815.03;;;25.17;65.67
6387;BME280;3226;42.162;24.756;2023-07-16T00:31:48;99826.63;;;25.10;66.01
6387;BME280;3226;42.162;24.756;2023-07-16T00:34:16;99828.66;;;25.15;65.62
6387;BME280;3226;42.162;24.756;2023-07-16T00:36:44;99820.41;;;25.17;65.31
6387;BME280;3226;42.162;24.756;2023-07-16T00:39:12;99829.53;;;25.09;65.72
6387;BME280;3226;42.162;24.756;2023-07-16T00:41:41;99825.75;;;24.91;66.83
6387;BME280;3226;42.162;24.756;2023-07-16T00:44:09;99827.06;;;25.07;66.42
6387;BME280;3226;42.162;24.756;2023-07-16T00:46:38;99826.63;;;25.10;65.84
6387;BME280;3226;42.162;24.756;2023-07-16T00:49:06;99825.19;;;25.08;66.65
6387;BME280;3226;42.162;24.756;2023-07-16T00:51:34;99822.44;;;24.96;66.27
6387;BME280;3226;42.162;24.756;2023-07-16T00:54:02;99826.53;;;24.98;66.13
6387;BME280;3226;42.162;24.756;2023-07-16T00:56:31;99824.22;;;25.02;65.98
6387;BME280;3226;42.162;24.756;2023-07-16T00:59:01;99821.13;;;25.05;66.70
6387;BME280;3226;42.162;24.756;2023-07-16T01:01:29;99817.31;;;24.88;67.06
6387;BME280;3226;42.162;24.756;2023-07-16T01:03:58;99821.75;;;24.75;67.19
6387;BME280;3226;42.162;24.756;2023-07-16T01:06:31;99822.63;;;24.62;68.06
6387;BME280;3226;42.162;24.756;2023-07-16T01:09:03;99798.97;;;24.59;67.75
6387;BME280;3226;42.162;24.756;2023-07-16T01:11:34;99819.75;;;24.64;68.18
6387;BME280;3226;42.162;24.756;2023-07-16T01:14:05;99823.22;;;24.64;68.28
6387;BME280;3226;42.162;24.756;2023-07-16T01:16:34;99821.56;;;24.63;68.46
6387;BME280;3226;42.162;24.756;2023-07-16T01:19:03;99821.91;;;24.74;67.77
6387;BME280;3226;42.162;24.756;2023-07-16T01:21:37;99825.47;;;24.67;68.21
6387;BME280;3226;42.162;24.756;2023-07-16T01:27:14;99829.84;;;24.62;67.88
6387;BME280;3226;42.162;24.756;2023-07-16T01:29:49;99834.09;;;24.69;67.77
6387;BME280;3226;42.162;24.756;2023-07-16T01:32:20;99833.91;;;24.71;67.33
6387;BME280;3226;42.162;24.756;2023-07-16T01:34:51;99837.63;;;24.70;67.64
6387;BME280;3226;42.162;24.756;2023-07-16T01:37:20;99819.50;;;24.65;67.91
6387;BME280;3226;42.162;24.756;2023-07-16T01:39:48;99829.19;;;24.66;67.39
6387;BME280;3226;42.162;24.756;2023-07-16T01:42:16;99823.22;;;24.64;68.12
6387;BME280;3226;42.162;24.756;2023-07-16T01:44:45;99815.41;;;24.63;67.26
6387;BME280;3226;42.162;24.756;2023-07-16T01:47:17;99834.53;;;24.66;67.64
6387;BME280;3226;42.162;24.756;2023-07-16T01:49:49;99832.97;;;24.52;68.19
6387;BME280;3226;42.162;24.756;2023-07-16T01:52:17;99837.66;;;24.57;68.50
6387;BME280;3226;42.162;24.756;2023-07-16T01:54:45;99834.81;;;24.51;68.37
6387;BME280;3226;42.162;24.756;2023-07-16T01:57:13;99814.09;;;24.40;68.51
6387;BME280;3226;42.162;24.756;2023-07-16T01:59:41;99826.59;;;24.53;68.32
6387;BME280;3226;42.162;24.756;2023-07-16T02:02:10;99830.84;;;24.29;69.57
6387;BME280;3226;42.162;24.756;2023-07-16T02:04:38;99822.09;;;24.47;68.55
6387;BME280;3226;42.162;24.756;2023-07-16T02:07:06;99824.97;;;24.45;68.58
6387;BME280;3226;42.162;24.756;2023-07-16T02:09:34;99835.34;;;24.35;69.38
6387;BME280;3226;42.162;24.756;2023-07-16T02:12:03;99836.53;;;24.46;68.70
6387;BME280;3226;42.162;24.756;2023-07-16T02:14:31;99833.50;;;24.29;69.69
6387;BME280;3226;42.162;24.756;2023-07-16T02:16:59;99832.69;;;24.28;69.78
6387;BME280;3226;42.162;24.756;2023-07-16T02:19:28;99840.69;;;24.35;69.45
6387;BME280;3226;42.162;24.756;2023-07-16T02:21:56;99838.81;;;24.35;69.62
6387;BME280;3226;42.162;24.756;2023-07-16T02:24:24;99840.88;;;24.33;69.50
6387;BME280;3226;42.162;24.756;2023-07-16T02:26:52;99838.19;;;24.40;69.44
6387;BME280;3226;42.162;24.756;2023-07-16T02:29:20;99830.34;;;24.45;69.06
6387;BME280;3226;42.162;24.756;2023-07-16T02:31:48;99840.69;;;24.35;69.23
6387;BME280;3226;42.162;24.756;2023-07-16T02:34:16;99841.66;;;24.47;69.04
6387;BME280;3226;42.162;24.756;2023-07-16T02:36:46;99843.56;;;24.33;69.74
6387;BME280;3226;42.162;24.756;2023-07-16T02:39:14;99844.06;;;24.17;70.86
6387;BME280;3226;42.162;24.756;2023-07-16T02:41:42;99848.97;;;24.20;70.82
6387;BME280;3226;42.162;24.756;2023-07-16T02:44:10;99849.41;;;24.17;70.44
6387;BME280;3226;42.162;24.756;2023-07-16T02:46:37;99849.41;;;24.17;70.81
6387;BME280;3226;42.162;24.756;2023-07-16T02:49:05;99847.09;;;24.20;71.07
6387;BME280;3226;42.162;24.756;2023-07-16T02:51:33;99844.69;;;24.12;71.68
6387;BME280;3226;42.162;24.756;2023-07-16T02:54:03;99844.91;;;24.10;71.73
6387;BME280;3226;42.162;24.756;2023-07-16T02:56:31;99847.16;;;24.07;72.11
6387;BME280;3226;42.162;24.756;2023-07-16T02:58:59;99853.75;;;24.11;71.59
6387;BME280;3226;42.162;24.756;2023-07-16T03:01:27;99851.06;;;24.11;71.13
6387;BME280;3226;42.162;24.756;2023-07-16T03:03:55;99853.75;;;24.04;71.76
6387;BME280;3226;42.162;24.756;2023-07-16T03:06:23;99852.09;;;24.03;72.28
6387;BME280;3226;42.162;24.756;2023-07-16T03:08:52;99848.59;;;23.96;72.71
6387;BME280;3226;42.162;24.756;2023-07-16T03:11:21;99845.75;;;23.91;72.94
6387;BME280;3226;42.162;24.756;2023-07-16T03:13:49;99815.59;;;23.63;74.01
6387;BME280;3226;42.162;24.756;2023-07-16T03:16:17;99846.19;;;23.81;73.74
6387;BME280;3226;42.162;24.756;2023-07-16T03:18:45;99853.81;;;23.77;74.17
6387;BME280;3226;42.162;24.756;2023-07-16T03:21:13;99847.63;;;23.90;72.96
6387;BME280;3226;42.162;24.756;2023-07-16T03:23:41;99855.41;;;23.99;72.63
6387;BME280;3226;42.162;24.756;2023-07-16T03:26:09;99860.97;;;24.04;72.70
6387;BME280;3226;42.162;24.756;2023-07-16T03:28:38;99856.66;;;23.89;73.49
6387;BME280;3226;42.162;24.756;2023-07-16T03:31:06;99863.06;;;23.88;73.57
6387;BME280;3226;42.162;24.756;2023-07-16T03:33:34;99863.03;;;24.02;72.28
6387;BME280;3226;42.162;24.756;2023-07-16T03:36:02;99862.19;;;24.08;71.90
6387;BME280;3226;42.162;24.756;2023-07-16T03:38:30;99862.19;;;24.15;71.92
6387;BME280;3226;42.162;24.756;2023-07-16T03:40:58;99868.38;;;24.08;72.16
6387;BME280;3226;42.162;24.756;2023-07-16T03:43:26;99864.63;;;24.16;72.00
6387;BME280;3226;42.162;24.756;2023-07-16T03:45:56;99868.31;;;24.15;72.13
6387;BME280;3226;42.162;24.756;2023-07-16T03:48:24;99873.66;;;24.22;71.52
6387;BME280;3226;42.162;24.756;2023-07-16T03:50:52;99866.06;;;24.12;71.99
6387;BME280;3226;42.162;24.756;2023-07-16T03:53:20;99870.75;;;24.30;71.24
6387;BME280;3226;42.162;24.756;2023-07-16T03:55:48;99871.50;;;24.44;70.43
6387;BME280;3226;42.162;24.756;2023-07-16T03:58:16;99871.50;;;24.51;70.29
6387;BME280;3226;42.162;24.756;2023-07-16T04:00:44;99874.53;;;24.54;70.22
6387;BME280;3226;42.162;24.756;2023-07-16T04:03:13;99871.03;;;24.61;70.12
6387;BME280;3226;42.162;24.756;2023-07-16T04:05:41;99873.06;;;24.65;69.65
6387;BME280;3226;42.162;24.756;2023-07-16T04:08:09;99881.25;;;24.71;69.13
6387;BME280;3226;42.162;24.756;2023-07-16T04:10:37;99865.28;;;24.57;69.13
6387;BME280;3226;42.162;24.756;2023-07-16T04:13:05;99879.63;;;24.76;68.93
6387;BME280;3226;42.162;24.756;2023-07-16T04:15:33;99877.53;;;24.72;69.60
6387;BME280;3226;42.162;24.756;2023-07-16T04:18:01;99881.06;;;24.79;69.18
6387;BME280;3226;42.162;24.756;2023-07-16T04:20:32;99886.41;;;24.72;69.51
6387;BME280;3226;42.162;24.756;2023-07-16T04:23:01;99883.75;;;24.65;68.33
6387;BME280;3226;42.162;24.756;2023-07-16T04:25:29;99886.19;;;24.74;67.62
6387;BME280;3226;42.162;24.756;2023-07-16T04:27:57;99889.47;;;24.82;67.57
6387;BME280;3226;42.162;24.756;2023-07-16T04:30:25;99885.16;;;24.75;68.08
6387;BME280;3226;42.162;24.756;2023-07-16T04:32:53;99895.47;;;24.78;67.87
6387;BME280;3226;42.162;24.756;2023-07-16T04:35:21;99890.59;;;25.00;67.12
6387;BME280;3226;42.162;24.756;2023-07-16T04:37:51;99898.53;;;25.14;66.63
6387;BME280;3226;42.162;24.756;2023-07-16T04:40:19;99897.59;;;25.01;66.96
6387;BME280;3226;42.162;24.756;2023-07-16T04:42:47;99896.25;;;24.85;66.63
6387;BME280;3226;42.162;24.756;2023-07-16T04:45:15;99892.41;;;24.74;66.28
6387;BME280;3226;42.162;24.756;2023-07-16T04:47:43;99893.91;;;24.95;66.40
6387;BME280;3226;42.162;24.756;2023-07-16T04:50:11;99899.59;;;25.06;66.16
6387;BME280;3226;42.162;24.756;2023-07-16T04:52:39;99910.19;;;25.26;66.09
6387;BME280;3226;42.162;24.756;2023-07-16T04:55:08;99904.56;;;25.34;65.21
6387;BME280;3226;42.162;24.756;2023-07-16T04:57:37;99905.94;;;25.44;64.90
6387;BME280;3226;42.162;24.756;2023-07-16T05:00:06;99909.81;;;25.54;64.63
6387;BME280;3226;42.162;24.756;2023-07-16T05:02:35;99913.41;;;25.67;63.89
6387;BME280;3226;42.162;24.756;2023-07-16T05:05:04;99910.31;;;25.63;62.64
6387;BME280;3226;42.162;24.756;2023-07-16T05:07:32;99898.41;;;25.59;63.28
6387;BME280;3226;42.162;24.756;2023-07-16T05:10:01;99912.44;;;25.80;62.01
6387;BME280;3226;42.162;24.756;2023-07-16T05:12:30;99915.59;;;25.95;61.06
6387;BME280;3226;42.162;24.756;2023-07-16T05:14:58;99906.19;;;25.67;61.08
6387;BME280;3226;42.162;24.756;2023-07-16T05:17:26;99919.06;;;25.77;62.11
6387;BME280;3226;42.162;24.756;2023-07-16T05:19:54;99930.22;;;25.74;62.12
6387;BME280;3226;42.162;24.756;2023-07-16T05:22:22;99923.34;;;25.85;61.55
6387;BME280;3226;42.162;24.756;2023-07-16T05:24:50;99923.63;;;25.95;62.19
6387;BME280;3226;42.162;24.756;2023-07-16T05:27:18;99929.38;;;25.99;61.62
6387;BME280;3226;42.162;24.756;2023-07-16T05:29:47;99921.34;;;25.99;60.52
6387;BME280;3226;42.162;24.756;2023-07-16T05:32:15;99920.81;;;26.09;60.11
6387;BME280;3226;42.162;24.756;2023-07-16T05:34:43;99928.41;;;26.19;60.22
6387;BME280;3226;42.162;24.756;2023-07-16T05:37:11;99932.44;;;25.59;62.36
6387;BME280;3226;42.162;24.756;2023-07-16T05:39:39;99927.22;;;25.89;60.63
6387;BME280;3226;42.162;24.756;2023-07-16T05:42:07;99899.34;;;25.90;61.36
6387;BME280;3226;42.162;24.756;2023-07-16T05:44:35;99928.41;;;26.19;59.61
6387;BME280;3226;42.162;24.756;2023-07-16T05:47:05;99912.50;;;26.17;59.92
6387;BME280;3226;42.162;24.756;2023-07-16T05:49:34;99930.53;;;26.29;59.59
6387;BME280;3226;42.162;24.756;2023-07-16T05:52:03;99929.59;;;26.23;59.26
6387;BME280;3226;42.162;24.756;2023-07-16T05:54:31;99941.19;;;26.35;59.42
6387;BME280;3226;42.162;24.756;2023-07-16T05:56:59;99947.16;;;26.37;58.99
6387;BME280;3226;42.162;24.756;2023-07-16T05:59:27;99942.91;;;26.48;58.31
6387;BME280;3226;42.162;24.756;2023-07-16T06:01:55;99938.94;;;26.51;58.67
6387;BME280;3226;42.162;24.756;2023-07-16T06:04:26;99948.22;;;26.18;58.30
6387;BME280;3226;42.162;24.756;2023-07-16T06:06:54;99943.81;;;26.23;58.70
6387;BME280;3226;42.162;24.756;2023-07-16T06:09:22;99934.03;;;26.48;57.60
6387;BME280;3226;42.162;24.756;2023-07-16T06:11:50;99929.63;;;26.53;56.27
6387;BME280;3226;42.162;24.756;2023-07-16T06:14:19;99932.31;;;26.53;56.16
6387;BME280;3226;42.162;24.756;2023-07-16T06:16:47;99931.19;;;26.61;55.88
6387;BME280;3226;42.162;24.756;2023-07-16T06:19:15;99931.78;;;26.45;57.29
6387;BME280;3226;42.162;24.756;2023-07-16T06:21:44;99935.25;;;26.33;56.78
6387;BME280;3226;42.162;24.756;2023-07-16T06:24:12;99939.75;;;26.70;56.02
6387;BME280;3226;42.162;24.756;2023-07-16T06:26:43;99927.66;;;26.79;55.86
6387;BME280;3226;42.162;24.756;2023-07-16T06:29:11;99935.78;;;26.91;55.61
6387;BME280;3226;42.162;24.756;2023-07-16T06:31:41;99928.19;;;26.69;56.10
6387;BME280;3226;42.162;24.756;2023-07-16T06:34:10;99929.59;;;26.91;55.78
6387;BME280;3226;42.162;24.756;2023-07-16T06:36:38;99927.31;;;27.06;55.92
6387;BME280;3226;42.162;24.756;2023-07-16T06:39:07;99917.31;;;26.95;54.98
6387;BME280;3226;42.162;24.756;2023-07-16T06:41:35;99918.63;;;26.92;55.99
6387;BME280;3226;42.162;24.756;2023-07-16T06:44:03;99914.47;;;27.08;54.93
6387;BME280;3226;42.162;24.756;2023-07-16T06:46:31;99917.06;;;27.27;54.64
6387;BME280;3226;42.162;24.756;2023-07-16T06:48:59;99917.19;;;27.44;55.04
6387;BME280;3226;42.162;24.756;2023-07-16T06:51:27;99911.31;;;27.35;54.94
6387;BME280;3226;42.162;24.756;2023-07-16T06:53:57;99910.03;;;26.83;55.06
6387;BME280;3226;42.162;24.756;2023-07-16T06:56:27;99906.22;;;26.91;54.96
6387;BME280;3226;42.162;24.756;2023-07-16T06:58:55;99905.00;;;27.18;54.12
6387;BME280;3226;42.162;24.756;2023-07-16T07:01:23;99900.22;;;27.20;53.76
6387;BME280;3226;42.162;24.756;2023-07-16T07:03:51;99905.13;;;27.23;53.13
6387;BME280;3226;42.162;24.756;2023-07-16T07:06:19;99912.59;;;27.21;52.71
6387;BME280;3226;42.162;24.756;2023-07-16T07:08:48;99913.06;;;27.18;52.71
6387;BME280;3226;42.162;24.756;2023-07-16T07:11:16;99911.81;;;27.44;51.78
6387;BME280;3226;42.162;24.756;2023-07-16T07:13:45;99913.03;;;27.60;51.98
6387;BME280;3226;42.162;24.756;2023-07-16T07:16:13;99919.69;;;27.58;51.91
6387;BME280;3226;42.162;24.756;2023-07-16T07:18:41;99908.28;;;27.20;51.66
6387;BME280;3226;42.162;24.756;2023-07-16T07:21:09;99911.94;;;26.95;50.94
6387;BME280;3226;42.162;24.756;2023-07-16T07:23:37;99915.41;;;27.26;50.85
6387;BME280;3226;42.162;24.756;2023-07-16T07:26:06;99911.56;;;27.34;50.47
6387;BME280;3226;42.162;24.756;2023-07-16T07:28:34;99906.53;;;27.25;51.22
6387;BME280;3226;42.162;24.756;2023-07-16T07:31:03;99915.06;;;27.34;51.29
6387;BME280;3226;42.162;24.756;2023-07-16T07:33:31;99906.66;;;27.31;51.42
6387;BME280;3226;42.162;24.756;2023-07-16T07:36:00;99913.72;;;27.79;50.41
6387;BME280;3226;42.162;24.756;2023-07-16T07:38:28;99910.09;;;27.74;49.17
6387;BME280;3226;42.162;24.756;2023-07-16T07:40:56;99904.78;;;27.31;50.94
6387;BME280;3226;42.162;24.756;2023-07-16T07:43:24;99909.00;;;27.39;49.49
6387;BME280;3226;42.162;24.756;2023-07-16T07:45:52;99909.06;;;27.63;49.45
6387;BME280;3226;42.162;24.756;2023-07-16T07:48:21;99899.00;;;27.82;49.73
6387;BME280;3226;42.162;24.756;2023-07-16T07:50:49;99897.56;;;28.03;49.62
6387;BME280;3226;42.162;24.756;2023-07-16T07:53:19;99890.09;;;27.93;49.05
6387;BME280;3226;42.162;24.756;2023-07-16T07:55:47;99903.31;;;27.95;48.46
6387;BME280;3226;42.162;24.756;2023-07-16T07:58:15;99906.44;;;28.16;47.76
6387;BME280;3226;42.162;24.756;2023-07-16T08:00:43;99902.09;;;28.26;48.50
6387;BME280;3226;42.162;24.756;2023-07-16T08:03:11;99901.03;;;28.27;47.94
6387;BME280;3226;42.162;24.756;2023-07-16T08:05:40;99900.56;;;28.31;48.30
6387;BME280;3226;42.162;24.756;2023-07-16T08:08:08;99906.31;;;28.22;48.33
6387;BME280;3226;42.162;24.756;2023-07-16T08:10:36;99899.53;;;28.20;47.52
6387;BME280;3226;42.162;24.756;2023-07-16T08:13:04;99901.16;;;28.09;47.37
6387;BME280;3226;42.162;24.756;2023-07-16T08:15:32;99904.59;;;27.80;49.54
6387;BME280;3226;42.162;24.756;2023-07-16T08:18:00;99891.81;;;27.99;49.36
6387;BME280;3226;42.162;24.756;2023-07-16T08:20:28;99894.13;;;28.32;48.46
6387;BME280;3226;42.162;24.756;2023-07-16T08:22:58;99900.09;;;28.22;49.12
6387;BME280;3226;42.162;24.756;2023-07-16T08:25:26;99885.16;;;28.43;48.65
6387;BME280;3226;42.162;24.756;2023-07-16T08:27:54;99897.06;;;28.59;49.05
6387;BME280;3226;42.162;24.756;2023-07-16T08:30:22;99892.09;;;28.68;49.05
6387;BME280;3226;42.162;24.756;2023-07-16T08:32:50;99876.47;;;28.53;48.63
6387;BME280;3226;42.162;24.756;2023-07-16T08:35:18;99878.84;;;28.49;48.43
6387;BME280;3226;42.162;24.756;2023-07-16T08:37:46;99887.50;;;28.51;47.87
6387;BME280;3226;42.162;24.756;2023-07-16T08:40:16;99886.00;;;28.73;48.42
6387;BME280;3226;42.162;24.756;2023-07-16T08:42:44;99884.66;;;28.87;47.90
6387;BME280;3226;42.162;24.756;2023-07-16T08:45:14;99886.47;;;29.15;47.50
6387;BME280;3226;42.162;24.756;2023-07-16T08:47:42;99877.81;;;29.13;46.60
6387;BME280;3226;42.162;24.756;2023-07-16T08:50:11;99873.16;;;28.63;47.87
6387;BME280;3226;42.162;24.756;2023-07-16T08:52:40;99877.19;;;28.77;48.41
6387;BME280;3226;42.162;24.756;2023-07-16T08:55:08;99880.28;;;28.98;48.56
6387;BME280;3226;42.162;24.756;2023-07-16T08:57:39;99861.19;;;28.70;48.89
6387;BME280;3226;42.162;24.756;2023-07-16T09:00:08;99880.13;;;28.76;49.63
6387;BME280;3226;42.162;24.756;2023-07-16T09:02:37;99871.13;;;29.16;49.08
6387;BME280;3226;42.162;24.756;2023-07-16T09:05:05;99879.09;;;29.40;48.99
6387;BME280;3226;42.162;24.756;2023-07-16T09:07:34;99880.50;;;29.65;48.72
6387;BME280;3226;42.162;24.756;2023-07-16T09:10:05;99872.03;;;29.56;48.45
6387;BME280;3226;42.162;24.756;2023-07-16T09:12:33;99878.97;;;29.52;48.77
6387;BME280;3226;42.162;24.756;2023-07-16T09:15:03;99844.81;;;29.40;48.99
6387;BME280;3226;42.162;24.756;2023-07-16T09:17:31;99872.53;;;29.53;49.25
6387;BME280;3226;42.162;24.756;2023-07-16T09:20:02;99870.28;;;29.15;49.70
6387;BME280;3226;42.162;24.756;2023-07-16T09:22:30;99882.72;;;29.51;49.31
6387;BME280;3226;42.162;24.756;2023-07-16T09:24:59;99846.38;;;29.76;48.48
6387;BME280;3226;42.162;24.756;2023-07-16T09:27:28;99872.63;;;30.47;46.76
6387;BME280;3226;42.162;24.756;2023-07-16T09:29:56;99869.66;;;30.71;46.72
6387;BME280;3226;42.162;24.756;2023-07-16T09:32:34;99864.16;;;30.61;46.83
6387;BME280;3226;42.162;24.756;2023-07-16T09:35:06;99850.06;;;30.09;48.22
6387;BME280;3226;42.162;24.756;2023-07-16T09:37:37;99871.03;;;30.02;48.26
6387;BME280;3226;42.162;24.756;2023-07-16T09:40:06;99864.56;;;30.25;47.47
6387;BME280;3226;42.162;24.756;2023-07-16T09:42:37;99841.00;;;30.42;47.49
6387;BME280;3226;42.162;24.756;2023-07-16T09:45:06;99848.69;;;30.56;48.14
6387;BME280;3226;42.162;24.756;2023-07-16T09:47:36;99843.53;;;30.82;47.45
6387;BME280;3226;42.162;24.756;2023-07-16T09:50:05;99848.53;;;31.00;46.56
6387;BME280;3226;42.162;24.756;2023-07-16T09:52:34;99838.16;;;31.20;46.39
6387;BME280;3226;42.162;24.756;2023-07-16T09:55:03;99839.31;;;31.29;46.26
6387;BME280;3226;42.162;24.756;2023-07-16T09:57:35;99831.28;;;31.44;46.08
6387;BME280;3226;42.162;24.756;2023-07-16T10:00:06;99826.56;;;31.67;45.47
6387;BME280;3226;42.162;24.756;2023-07-16T10:02:39;99829.81;;;31.75;44.69
6387;BME280;3226;42.162;24.756;2023-07-16T10:05:12;99832.22;;;31.66;45.03
6387;BME280;3226;42.162;24.756;2023-07-16T10:07:40;99813.22;;;31.50;45.11
6387;BME280;3226;42.162;24.756;2023-07-16T10:10:09;99835.16;;;31.64;45.33
6387;BME280;3226;42.162;24.756;2023-07-16T10:12:40;99821.38;;;31.66;46.00
6387;BME280;3226;42.162;24.756;2023-07-16T10:15:11;99821.16;;;31.72;46.26
6387;BME280;3226;42.162;24.756;2023-07-16T10:17:49;99812.53;;;31.76;45.91
6387;BME280;3226;42.162;24.756;2023-07-16T10:20:28;99812.03;;;31.84;46.40
6387;BME280;3226;42.162;24.756;2023-07-16T10:22:56;99813.81;;;31.68;46.03
6387;BME280;3226;42.162;24.756;2023-07-16T10:25:26;99788.91;;;31.66;46.31
6387;BME280;3226;42.162;24.756;2023-07-16T10:27:56;99799.88;;;31.92;45.40
6387;BME280;3226;42.162;24.756;2023-07-16T10:30:24;99797.41;;;31.85;45.92
6387;BME280;3226;42.162;24.756;2023-07-16T10:32:53;99792.22;;;31.78;46.09
6387;BME280;3226;42.162;24.756;2023-07-16T10:35:22;99797.41;;;31.90;45.88
6387;BME280;3226;42.162;24.756;2023-07-16T10:37:51;99791.78;;;32.07;45.16
6387;BME280;3226;42.162;24.756;2023-07-16T10:40:19;99788.28;;;32.17;45.52
6387;BME280;3226;42.162;24.756;2023-07-16T10:42:47;99779.09;;;32.18;45.34
6387;BME280;3226;42.162;24.756;2023-07-16T10:45:15;99776.38;;;32.23;45.44
6387;BME280;3226;42.162;24.756;2023-07-16T10:47:51;99769.63;;;32.26;45.53
6387;BME280;3226;42.162;24.756;2023-07-16T10:50:21;99770.47;;;32.42;44.94
6387;BME280;3226;42.162;24.756;2023-07-16T10:52:51;99780.97;;;32.12;45.44
6387;BME280;3226;42.162;24.756;2023-07-16T10:55:20;99767.97;;;32.14;45.84
6387;BME280;3226;42.162;24.756;2023-07-16T10:57:49;99774.44;;;31.93;45.45
6387;BME280;3226;42.162;24.756;2023-07-16T11:00:18;99766.53;;;31.76;45.77
6387;BME280;3226;42.162;24.756;2023-07-16T11:02:46;99764.88;;;31.75;46.58
6387;BME280;3226;42.162;24.756;2023-07-16T11:05:15;99762.00;;;32.02;46.20
6387;BME280;3226;42.162;24.756;2023-07-16T11:07:45;99759.03;;;32.24;45.80
6387;BME280;3226;42.162;24.756;2023-07-16T11:10:19;99754.63;;;31.77;46.19
6387;BME280;3226;42.162;24.756;2023-07-16T11:12:50;99750.28;;;31.81;46.09
6387;BME280;3226;42.162;24.756;2023-07-16T11:15:30;99735.63;;;31.71;46.13
6387;BME280;3226;42.162;24.756;2023-07-16T11:17:58;99747.13;;;32.15;46.04
6387;BME280;3226;42.162;24.756;2023-07-16T11:20:26;99749.34;;;32.44;45.98
6387;BME280;3226;42.162;24.756;2023-07-16T11:22:59;99747.69;;;32.64;45.36
6387;BME280;3226;42.162;24.756;2023-07-16T11:25:28;99741.19;;;32.70;44.65
6387;BME280;3226;42.162;24.756;2023-07-16T11:27:57;99729.81;;;32.52;44.99
6387;BME280;3226;42.162;24.756;2023-07-16T11:30:25;99736.31;;;32.67;45.07
6387;BME280;3226;42.162;24.756;2023-07-16T11:32:54;99744.47;;;32.46;45.18
6387;BME280;3226;42.162;24.756;2023-07-16T11:35:22;99740.13;;;32.71;44.62
6387;BME280;3226;42.162;24.756;2023-07-16T11:37:51;99746.59;;;32.85;44.48
6387;BME280;3226;42.162;24.756;2023-07-16T11:40:20;99738.19;;;33.02;44.42
6387;BME280;3226;42.162;24.756;2023-07-16T11:42:49;99732.50;;;33.09;43.24
6387;BME280;3226;42.162;24.756;2023-07-16T11:45:18;99730.31;;;33.11;43.10
6387;BME280;3226;42.162;24.756;2023-07-16T11:47:46;99734.69;;;32.76;43.76
6387;BME280;3226;42.162;24.756;2023-07-16T11:50:14;99726.59;;;32.50;43.99
6387;BME280;3226;42.162;24.756;2023-07-16T11:52:51;99728.72;;;32.84;43.56
6387;BME280;3226;42.162;24.756;2023-07-16T11:55:20;99724.63;;;33.08;43.86
6387;BME280;3226;42.162;24.756;2023-07-16T11:57:48;99722.38;;;33.30;43.50
6387;BME280;3226;42.162;24.756;2023-07-16T12:00:16;99718.38;;;33.12;43.95
6387;BME280;3226;42.162;24.756;2023-07-16T12:02:45;99722.19;;;33.01;43.62
6387;BME280;3226;42.162;24.756;2023-07-16T12:05:18;99722.78;;;32.87;44.02
6387;BME280;3226;42.162;24.756;2023-07-16T12:07:56;99723.53;;;33.04;43.86
6387;BME280;3226;42.162;24.756;2023-07-16T12:10:26;99718.13;;;33.04;42.91
6387;BME280;3226;42.162;24.756;2023-07-16T12:12:53;99718.06;;;33.19;42.77
6387;BME280;3226;42.162;24.756;2023-07-16T12:15:22;99719.44;;;33.16;43.08
6387;BME280;3226;42.162;24.756;2023-07-16T12:17:50;99715.66;;;33.17;42.68
6387;BME280;3226;42.162;24.756;2023-07-16T12:20:18;99708.31;;;33.13;42.30
6387;BME280;3226;42.162;24.756;2023-07-16T12:22:46;99711.25;;;33.27;42.57
6387;BME280;3226;42.162;24.756;2023-07-16T12:25:16;99715.34;;;33.24;41.27
6387;BME280;3226;42.162;24.756;2023-07-16T12:27:46;99712.94;;;33.17;42.53
6387;BME280;3226;42.162;24.756;2023-07-16T12:30:14;99706.22;;;32.99;42.76
6387;BME280;3226;42.162;24.756;2023-07-16T12:32:42;99708.63;;;33.01;42.45
6387;BME280;3226;42.162;24.756;2023-07-16T12:35:10;99706.50;;;32.87;42.76
6387;BME280;3226;42.162;24.756;2023-07-16T12:37:38;99706.50;;;32.72;41.77
6387;BME280;3226;42.162;24.756;2023-07-16T12:40:07;99706.22;;;32.79;41.86
6387;BME280;3226;42.162;24.756;2023-07-16T12:42:35;99701.88;;;32.83;42.62
6387;BME280;3226;42.162;24.756;2023-07-16T12:45:06;99704.84;;;32.86;42.50
6387;BME280;3226;42.162;24.756;2023-07-16T12:47:34;99706.22;;;32.79;42.64
6387;BME280;3226;42.162;24.756;2023-07-16T12:50:02;99698.63;;;32.81;42.29
6387;BME280;3226;42.162;24.756;2023-07-16T12:52:31;99695.59;;;33.03;42.21
6387;BME280;3226;42.162;24.756;2023-07-16T12:54:59;99687.22;;;32.84;41.63
6387;BME280;3226;42.162;24.756;2023-07-16T12:57:27;99689.09;;;32.99;40.80
6387;BME280;3226;42.162;24.756;2023-07-16T12:59:55;99676.59;;;33.13;41.08
6387;BME280;3226;42.162;24.756;2023-07-16T13:02:24;99681.63;;;33.46;40.61
6387;BME280;3226;42.162;24.756;2023-07-16T13:04:52;99672.03;;;33.64;40.67
6387;BME280;3226;42.162;24.756;2023-07-16T13:07:20;99678.97;;;33.86;40.90
6387;BME280;3226;42.162;24.756;2023-07-16T13:09:48;99670.72;;;33.62;40.84
6387;BME280;3226;42.162;24.756;2023-07-16T13:12:30;99674.28;;;33.52;40.57
6387;BME280;3226;42.162;24.756;2023-07-16T13:14:58;99673.47;;;33.51;39.94
6387;BME280;3226;42.162;24.756;2023-07-16T13:17:27;99666.00;;;33.78;40.51
6387;BME280;3226;42.162;24.756;2023-07-16T13:19:55;99667.50;;;33.94;39.62
6387;BME280;3226;42.162;24.756;2023-07-16T13:22:23;99666.13;;;34.02;38.93